createdAt,value
2018-12-23T00:01:49.390Z,0.76
2018-12-23T00:04:18.967Z,0.75
2018-12-23T00:06:48.591Z,0.82
2018-12-23T00:09:18.091Z,0.77
2018-12-23T00:11:47.706Z,0.67
2018-12-23T00:14:17.878Z,0.68
2018-12-23T00:16:47.549Z,0.80
2018-12-23T00:19:17.015Z,0.76
2018-12-23T00:21:46.667Z,0.87
2018-12-23T00:24:16.433Z,0.94
2018-12-23T00:26:45.913Z,0.98
2018-12-23T00:29:15.596Z,0.86
2018-12-23T00:31:45.158Z,0.73
2018-12-23T00:34:14.903Z,0.78
2018-12-23T00:36:44.445Z,0.85
2018-12-23T00:39:14.190Z,0.88
2018-12-23T00:41:43.739Z,0.88
2018-12-23T00:44:13.338Z,0.93
2018-12-23T00:46:42.870Z,0.92
2018-12-23T00:49:12.368Z,0.92
2018-12-23T00:51:41.952Z,0.96
2018-12-23T00:54:11.536Z,0.97
2018-12-23T00:56:41.203Z,1.01
2018-12-23T00:59:10.839Z,1.07
2018-12-23T01:01:40.374Z,1.10
2018-12-23T01:04:10.507Z,1.28
2018-12-23T01:06:40.159Z,1.11
2018-12-23T01:09:10.291Z,1.08
2018-12-23T01:11:39.881Z,1.13
2018-12-23T01:14:10.133Z,1.06
2018-12-23T01:16:39.644Z,1.07
2018-12-23T01:19:09.215Z,1.15
2018-12-23T01:21:39.198Z,1.07
2018-12-23T01:24:08.718Z,0.92
2018-12-23T01:26:38.258Z,0.76
2018-12-23T01:29:07.945Z,0.72
2018-12-23T01:31:37.478Z,0.76
2018-12-23T01:34:06.990Z,0.82
2018-12-23T01:36:36.575Z,0.81
2018-12-23T01:39:07.309Z,0.77
2018-12-23T01:41:36.934Z,0.88
2018-12-23T01:44:06.456Z,0.85
2018-12-23T01:46:36.012Z,0.80
2018-12-23T01:49:05.641Z,0.84
2018-12-23T01:51:35.324Z,0.78
2018-12-23T01:54:05.783Z,0.75
2018-12-23T01:56:35.322Z,0.67
2018-12-23T01:59:04.928Z,0.74
2018-12-23T02:01:34.438Z,0.87
2018-12-23T02:04:04.051Z,0.95
2018-12-23T02:06:33.734Z,0.89
2018-12-23T02:09:05.278Z,0.96
2018-12-23T02:11:35.063Z,0.96
2018-12-23T02:14:04.645Z,0.87
2018-12-23T02:16:34.183Z,0.87
2018-12-23T02:19:03.853Z,1.01
2018-12-23T02:21:33.422Z,0.80
2018-12-23T02:24:03.055Z,0.84
2018-12-23T02:26:32.906Z,0.85
2018-12-23T02:29:02.590Z,0.84
2018-12-23T02:31:32.124Z,0.84
2018-12-23T02:34:01.871Z,0.85
2018-12-23T02:36:31.433Z,0.82
2018-12-23T02:39:01.068Z,0.89
2018-12-23T02:41:31.900Z,1.06
2018-12-23T02:44:01.818Z,0.96
2018-12-23T02:46:31.490Z,0.87
2018-12-23T02:49:01.230Z,0.97
2018-12-23T02:51:30.613Z,0.88
2018-12-23T02:54:00.079Z,0.67
2018-12-23T02:56:29.774Z,1.03
2018-12-23T02:58:59.539Z,0.91
2018-12-23T03:01:29.001Z,0.90
2018-12-23T03:03:58.647Z,0.80
2018-12-23T03:06:28.436Z,0.76
2018-12-23T03:08:57.959Z,0.83
2018-12-23T03:31:17.643Z,0.79
2018-12-23T03:34:26.915Z,0.84
2018-12-23T03:52:39.595Z,0.81
2018-12-23T04:01:41.911Z,0.86
2018-12-23T04:17:03.807Z,0.91
2018-12-23T04:20:13.062Z,0.56
2018-12-23T05:13:13.937Z,0.79
2018-12-23T05:16:23.080Z,0.69
2018-12-23T05:22:21.320Z,0.77
2018-12-23T05:28:15.388Z,1.03
2018-12-23T05:31:04.498Z,0.91
2018-12-23T05:52:19.468Z,0.78
2018-12-23T05:55:28.733Z,0.89
2018-12-23T06:41:40.483Z,1.52
2018-12-23T06:47:36.030Z,1.59
2018-12-23T06:50:25.076Z,1.61
2018-12-23T06:53:34.738Z,1.52
2018-12-23T07:37:00.502Z,2.84
2018-12-23T07:48:48.197Z,2.95
2018-12-23T08:10:26.187Z,2.28
2018-12-23T08:13:35.318Z,2.49
2018-12-23T08:19:33.880Z,2.54
2018-12-23T08:22:04.485Z,2.36
2018-12-23T08:25:13.634Z,2.16
2018-12-23T09:02:02.131Z,2.68
2018-12-23T09:05:11.332Z,2.72
2018-12-23T09:26:36.541Z,3.40
2018-12-23T09:29:45.791Z,3.22
2018-12-23T09:38:46.387Z,3.33
2018-12-23T09:41:55.670Z,2.95
2018-12-23T10:06:38.458Z,3.92
2018-12-23T10:09:47.961Z,4.12
2018-12-23T10:16:04.945Z,4.16
2018-12-23T10:21:54.762Z,4.23
2018-12-23T10:25:03.976Z,4.42
2018-12-23T10:59:18.454Z,6.33
2018-12-23T11:02:13.570Z,6.68
2018-12-23T11:05:18.677Z,6.76
2018-12-23T11:11:10.958Z,7.37
2018-12-23T11:14:20.091Z,8.33
2018-12-23T11:20:14.063Z,9.06
2018-12-23T11:28:57.604Z,9.31
2018-12-23T11:32:07.111Z,9.20
2018-12-23T11:34:48.475Z,8.15
2018-12-23T11:46:24.136Z,9.38
2018-12-23T11:49:33.351Z,9.38
2018-12-23T11:52:22.538Z,9.49
2018-12-23T11:55:07.172Z,9.60
2018-12-23T12:00:59.408Z,9.79
2018-12-23T12:04:08.613Z,9.77
2018-12-23T12:06:57.851Z,9.72
2018-12-23T12:10:07.039Z,9.94
2018-12-23T12:12:56.255Z,10.52
2018-12-23T12:16:13.399Z,10.49
2018-12-23T12:19:02.688Z,10.14
2018-12-23T12:22:11.915Z,10.01
2018-12-23T12:46:56.121Z,9.71
2018-12-23T13:07:26.085Z,8.79
2018-12-23T13:09:57.566Z,8.79
2018-12-23T13:15:48.172Z,9.00
2018-12-23T13:18:31.245Z,8.84
2018-12-23T13:24:20.542Z,9.28
2018-12-23T13:27:05.380Z,9.28
2018-12-23T13:29:51.494Z,9.52
2018-12-23T13:35:42.314Z,9.41
2018-12-23T13:38:29.303Z,9.41
2018-12-23T13:41:38.165Z,9.47
2018-12-23T13:44:47.095Z,9.39
2018-12-23T13:47:56.021Z,9.47
2018-12-23T13:50:52.827Z,9.47
2018-12-23T13:53:38.009Z,9.42
2018-12-23T13:56:24.201Z,9.67
2018-12-23T13:59:33.089Z,9.67
2018-12-23T14:02:41.977Z,9.78
2018-12-23T14:05:26.667Z,9.71
2018-12-23T14:08:35.577Z,9.82
2018-12-23T14:11:18.955Z,9.79
2018-12-23T14:38:01.524Z,7.87
2018-12-23T14:49:59.748Z,7.28
2018-12-23T14:55:31.512Z,6.85
2018-12-23T15:01:21.833Z,6.66
2018-12-23T15:16:25.731Z,7.39
2018-12-23T15:19:12.196Z,7.39
2018-12-23T15:21:58.793Z,7.37
2018-12-23T15:24:43.629Z,7.61
2018-12-23T15:27:30.010Z,7.67
2018-12-23T15:42:34.032Z,7.59
2018-12-23T15:45:20.575Z,7.54
2018-12-23T15:56:24.431Z,7.49
2018-12-23T16:02:13.156Z,7.46
2018-12-23T16:23:29.235Z,6.61
2018-12-23T16:26:13.524Z,6.47
2018-12-23T16:32:02.644Z,6.21
2018-12-23T16:40:58.264Z,5.86
2018-12-23T17:04:53.906Z,5.29
2018-12-23T17:40:54.256Z,4.88
2018-12-23T18:10:24.956Z,4.38
2018-12-23T18:13:52.108Z,4.34
2018-12-23T18:53:31.927Z,4.17
2018-12-23T19:11:01.789Z,4.26
2018-12-23T19:14:10.741Z,4.20
2018-12-23T19:17:08.023Z,4.04
2018-12-23T19:23:00.483Z,3.96
2018-12-23T19:26:09.370Z,3.85
2018-12-23T19:29:18.252Z,3.66
2018-12-23T19:32:03.042Z,3.68
2018-12-23T19:35:11.957Z,3.71
2018-12-23T19:38:21.211Z,3.65
2018-12-23T19:41:05.852Z,3.65
2018-12-23T19:44:15.750Z,3.53
2018-12-23T19:47:24.673Z,3.45
2018-12-23T19:50:07.622Z,3.37
2018-12-23T19:53:16.574Z,3.31
2018-12-23T19:56:01.605Z,3.20
2018-12-23T19:59:10.492Z,3.33
2018-12-23T20:02:19.446Z,3.30
2018-12-23T20:05:28.392Z,3.27
2018-12-23T20:08:37.280Z,3.24
2018-12-23T20:11:46.187Z,3.11
2018-12-23T20:14:55.095Z,3.07
2018-12-23T20:18:04.051Z,2.94
2018-12-23T20:24:31.922Z,2.89
2018-12-23T20:27:40.807Z,3.02
2018-12-23T20:30:49.705Z,2.94
2018-12-23T20:33:58.697Z,2.91
2018-12-23T20:37:07.617Z,2.84
2018-12-23T20:40:16.565Z,2.79
2018-12-23T20:46:36.750Z,2.72
2018-12-23T20:49:45.746Z,2.74
2018-12-23T20:52:41.641Z,2.68
2018-12-23T20:55:50.751Z,2.65
2018-12-23T20:58:37.454Z,2.59
2018-12-23T21:01:46.406Z,2.62
2018-12-23T21:07:41.812Z,2.65
2018-12-23T21:10:51.147Z,2.64
2018-12-23T21:13:37.454Z,2.56
2018-12-23T21:16:46.482Z,2.54
2018-12-23T21:19:55.563Z,2.61
2018-12-23T21:23:04.472Z,2.55
2018-12-23T21:26:13.401Z,2.53
2018-12-23T21:29:22.323Z,2.49
2018-12-23T21:32:31.276Z,2.38
2018-12-23T21:38:55.533Z,2.40
2018-12-23T21:41:41.764Z,2.29
2018-12-23T21:44:27.913Z,2.35
2018-12-23T21:47:36.846Z,2.43
2018-12-23T21:50:45.803Z,2.51
2018-12-23T21:57:09.000Z,2.51
2018-12-23T22:00:17.970Z,2.24
2018-12-23T22:03:26.884Z,2.14
2018-12-23T22:06:35.835Z,2.13
2018-12-23T22:09:46.855Z,2.30
2018-12-23T22:13:14.789Z,2.36
2018-12-23T23:02:08.250Z,1.74
2018-12-23T23:28:49.281Z,1.95
2018-12-23T23:43:52.089Z,2.11
2018-12-23T23:46:36.755Z,1.99
